Homer, AK

3:38 AM AKDT on September 17, 2014 (GMT -0800)
Soldotna | Change Station
CLOSE
Current Station
Airport
Location: Soldotna,
Elevation: 112 ft
Nearby Weather Stations

Elev 112 ft 60.48 °N, 151.03 °W | Updated 22 minutes ago

Overcast
Overcast
48 °F
Feels Like 48 °F
N
7
Wind Variable Wind from ENE

Today
High -- | Low -- °F
--% Chance of Precip.
Yesterday
High -- | Low -- °F
Precip. -- in
7:39 AM 8:19 PM
Last Quarter, 37% visible
Pressure 29.47 in
Visibility 10.0 miles
Clouds Overcast 10000 ft
Dew Point 41 °F
Humidity 76%
Rainfall 0.00 in
Snow Depth 1 in , 2 in , 0 in
UV 0 out of 12
Pollen Not available.
Air Quality Not available.
Flu Activity Not available.
METAR PASX 171116Z AUTO 07006KT 10SM OVC100 09/05 A2947 RMK AO1

More Conditions Fewer Conditions

Pressure 29.47 in
Visibility 10.0 miles
Clouds Overcast 10000 ft
Dew Point 41 °F
Humidity 76%
Rainfall 0.00 in
Snow Depth 1 in , 2 in , 0 in
UV 0 out of 12
Pollen Not available.
Air Quality Not available.
Flu Activity Not available.
METAR PASX 171116Z AUTO 07006KT 10SM OVC100 09/05 A2947 RMK AO1

More Conditions Fewer Conditions

10-Day Weather Forecast

Almanac

Astronomy

Sep. 17, 2014 Rise Set
Actual Time 7:39 AM AKDT 8:19 PM AKDT
Civil Twilight 6:57 AM AKDT 9:01 PM AKDT
Nautical Twilight 6:06 AM AKDT 9:52 PM AKDT
Astronomical Twilight 5:09 AM AKDT 10:48 PM AKDT
Moon 12:43 AM AKDT 5:37 PM AKDT
Length of Visible Light 14h 03m
Length of Day
12h 40m
Tomorrow will be 5m 20s shorter.
Last Quarter, 37% of the Moon is Illuminated
Today
Last Quarter
Sep 24
New
Oct 1
First Quarter
Oct 8
Full
Oct 15
Last Quarter

Today's Extremes

State Highs State Lows

Community

WunderPhotos

Upload Photos

1,754,003 photos uploaded!

Nearby

Snow Depth

Station Depth Elevation
Eagle Summit 1 in 3650 ft
Turnagain Pass 2 in 1880 ft
Upper Tsaina River 0 in 1750 ft
Coldfoot 0 in 1040 ft
Summit Creek 0 in 1400 ft

Earthquake Activity

City Distance Mag. Time & Date
No recent earthquake activity has been reported nearby.
Minimum magnitude displayed is 2.5.

Coastal Water Temperatures

Place Temperature
No Stations Reporting

Nearby Weather Stations